Time,TemperatureF,DewpointF,PressureIn,WindDirection,WindDirectionDegrees,WindSpeedMPH,WindSpeedGustMPH,Humidity,HourlyPrecipIn,Conditions,Clouds,dailyrainin,SoftwareType,DateUTC
2017-05-29 00:00:00,63.4,61.0,29.82,ESE,117,0.0,0.0,92,0.00,,,0.00,Wunderground v.1.15,2017-05-29 04:00:00,
2017-05-29 00:10:00,63.3,60.9,29.81,SE,145,0.0,0.0,92,0.00,,,0.00,Wunderground v.1.15,2017-05-29 04:10:00,
2017-05-29 00:20:00,63.1,61.0,29.81,SE,128,0.0,0.0,93,0.00,,,0.00,Wunderground v.1.15,2017-05-29 04:20:00,
2017-05-29 00:25:00,63.0,60.6,29.80,SE,139,0.0,0.0,92,0.00,,,0.00,Wunderground v.1.15,2017-05-29 04:25:00,
2017-05-29 00:35:00,62.6,60.5,29.80,SE,139,0.0,0.0,93,0.00,,,0.00,Wunderground v.1.15,2017-05-29 04:35:00,
2017-05-29 00:45:00,62.2,60.2,29.81,SSW,212,0.0,0.0,93,0.00,,,0.00,Wunderground v.1.15,2017-05-29 04:45:00,
2017-05-29 00:55:00,61.9,59.9,29.82,SSW,200,0.0,0.0,93,0.00,,,0.00,Wunderground v.1.15,2017-05-29 04:55:00,
2017-05-29 01:00:00,61.8,59.8,29.81,South,169,0.0,0.0,93,0.00,,,0.00,Wunderground v.1.15,2017-05-29 05:00:00,
2017-05-29 01:05:00,61.9,59.9,29.82,SSE,148,0.0,0.0,93,0.00,,,0.00,Wunderground v.1.15,2017-05-29 05:05:00,
2017-05-29 01:15:00,61.7,59.7,29.83,SW,217,0.0,0.0,93,0.00,,,0.00,Wunderground v.1.15,2017-05-29 05:15:00,
2017-05-29 01:25:00,61.7,60.0,29.83,SE,138,0.0,0.0,94,0.00,,,0.00,Wunderground v.1.15,2017-05-29 05:25:00,
2017-05-29 01:35:00,61.7,60.0,29.83,SSE,167,0.0,0.0,94,0.00,,,0.00,Wunderground v.1.15,2017-05-29 05:35:00,
2017-05-29 01:45:00,61.9,60.2,29.83,SSE,158,0.0,0.0,94,0.00,,,0.00,Wunderground v.1.15,2017-05-29 05:45:00,
2017-05-29 01:50:00,61.8,60.1,29.83,South,169,0.0,0.0,94,0.00,,,0.00,Wunderground v.1.15,2017-05-29 05:50:00,
2017-05-29 02:00:00,61.6,59.9,29.83,South,169,0.0,0.0,94,0.00,,,0.00,Wunderground v.1.15,2017-05-29 06:00:00,
2017-05-29 02:10:00,61.3,59.6,29.83,South,169,0.0,0.0,94,0.00,,,0.00,Wunderground v.1.15,2017-05-29 06:10:00,
2017-05-29 02:20:00,61.0,59.3,29.83,South,169,0.0,0.0,94,0.00,,,0.00,Wunderground v.1.15,2017-05-29 06:20:00,
2017-05-29 02:25:00,60.9,59.2,29.83,South,169,0.0,0.0,94,0.00,,,0.00,Wunderground v.1.15,2017-05-29 06:25:00,
2017-05-29 02:35:00,60.7,59.0,29.84,South,169,0.0,0.0,94,0.00,,,0.00,Wunderground v.1.15,2017-05-29 06:35:00,
2017-05-29 02:45:00,60.4,58.7,29.84,South,169,0.0,0.0,94,0.00,,,0.00,Wunderground v.1.15,2017-05-29 06:45:00,
2017-05-29 02:55:00,60.3,58.6,29.84,South,169,0.0,0.0,94,0.00,,,0.00,Wunderground v.1.15,2017-05-29 06:55:00,
2017-05-29 03:00:00,60.3,58.6,29.84,South,169,0.0,0.0,94,0.00,,,0.00,Wunderground v.1.15,2017-05-29 07:00:00,
2017-05-29 03:10:00,60.3,58.6,29.84,South,169,0.0,0.0,94,0.00,,,0.00,Wunderground v.1.15,2017-05-29 07:10:00,
2017-05-29 03:20:00,60.3,58.6,29.83,South,169,0.0,0.0,94,0.00,,,0.00,Wunderground v.1.15,2017-05-29 07:20:00,
2017-05-29 03:30:00,60.0,58.3,29.83,South,169,0.0,0.0,94,0.00,,,0.00,Wunderground v.1.15,2017-05-29 07:30:00,
2017-05-29 03:35:00,59.8,58.1,29.83,South,169,0.0,0.0,94,0.00,,,0.00,Wunderground v.1.15,2017-05-29 07:35:00,
2017-05-29 03:45:00,59.8,58.1,29.83,South,169,0.0,0.0,94,0.00,,,0.00,Wunderground v.1.15,2017-05-29 07:45:00,
2017-05-29 03:55:00,59.4,57.7,29.83,South,169,0.0,0.0,94,0.00,,,0.00,Wunderground v.1.15,2017-05-29 07:55:00,
2017-05-29 04:05:00,59.0,57.3,29.83,South,169,0.0,0.0,94,0.00,,,0.00,Wunderground v.1.15,2017-05-29 08:05:00,
2017-05-29 04:10:00,58.8,57.1,29.83,South,169,0.0,0.0,94,0.00,,,0.00,Wunderground v.1.15,2017-05-29 08:10:00,
2017-05-29 04:20:00,59.3,57.6,29.83,South,169,0.0,0.0,94,0.00,,,0.00,Wunderground v.1.15,2017-05-29 08:20:00,
2017-05-29 04:30:00,59.7,58.0,29.84,South,169,0.0,0.0,94,0.00,,,0.00,Wunderground v.1.15,2017-05-29 08:30:00,
2017-05-29 04:40:00,59.7,58.0,29.84,South,169,0.0,0.0,94,0.00,,,0.00,Wunderground v.1.15,2017-05-29 08:40:00,
2017-05-29 04:45:00,59.9,58.2,29.84,South,169,0.0,0.0,94,0.00,,,0.00,Wunderground v.1.15,2017-05-29 08:45:00,
2017-05-29 04:55:00,59.5,57.8,29.84,South,169,0.0,0.0,94,0.00,,,0.00,Wunderground v.1.15,2017-05-29 08:55:00,
2017-05-29 05:05:00,59.5,57.8,29.85,South,169,0.0,0.0,94,0.00,,,0.00,Wunderground v.1.15,2017-05-29 09:05:00,
2017-05-29 05:15:00,59.7,58.0,29.85,South,169,0.0,0.0,94,0.00,,,0.00,Wunderground v.1.15,2017-05-29 09:15:00,
2017-05-29 05:20:00,60.4,58.7,29.85,SSW,195,0.0,0.0,94,0.00,,,0.00,Wunderground v.1.15,2017-05-29 09:20:00,
2017-05-29 05:30:00,61.5,60.1,29.86,SE,131,0.0,0.0,95,0.00,,,0.00,Wunderground v.1.15,2017-05-29 09:30:00,
2017-05-29 05:40:00,62.2,60.8,29.86,SSW,194,0.0,1.0,95,0.00,,,0.00,Wunderground v.1.15,2017-05-29 09:40:00,
2017-05-29 05:50:00,62.5,61.0,29.86,SW,217,1.0,1.0,95,0.00,,,0.00,Wunderground v.1.15,2017-05-29 09:50:00,
2017-05-29 06:00:00,61.8,60.9,29.86,SSW,200,1.0,1.0,97,0.00,,,0.00,Wunderground v.1.15,2017-05-29 10:00:00,